.
WxDataArchive / Data Records for 2010-07-28
2010-07-27 July 2010 2010-07-29

Data Records for Wednesday, 28 July 2010

Time	Temp	Chill	HIndex	Humid	Dewpt	 Wind 	HiWind	WindDir	Rain 	Barom 
-----	----	-----	------	-----	-----	------	------	-------	-----	----- 
00:00	72.5	72.5	72.5	81	66.3	0	0	---	0.00	29.986 
00:05	72.5	72.5	72.5	81	66.3	0	0	---	0.00	29.986 
00:10	72.3	72.3	72.3	81	66.1	0	0	---	0.00	29.986 
00:15	72.3	72.3	72.3	82	66.5	0	0	---	0.00	29.989 
00:20	72.1	72.1	72.1	83	66.6	0	0	---	0.00	29.989 
00:25	72.0	72.0	72.0	83	66.5	0	0	---	0.00	29.989 
00:30	71.8	71.8	71.8	84	66.7	0	0	---	0.00	29.999 
00:35	71.8	71.8	71.8	84	66.7	0	0	---	0.00	29.999 
00:40	71.8	71.8	71.8	84	66.7	0	0	---	0.00	29.999 
00:45	71.6	71.6	71.6	84	66.5	0	0	---	0.00	30.004 
00:50	71.5	71.5	71.5	84	66.4	0	0	---	0.00	30.004 
00:55	71.5	71.5	71.5	84	66.4	0	0	---	0.00	30.004 
01:00	71.3	71.3	71.3	85	66.5	0	0	---	0.00	30.005 
01:05	71.3	71.3	71.3	85	66.5	0	0	---	0.00	30.005 
01:10	71.1	71.1	71.1	85	66.4	0	0	---	0.00	30.005 
01:15	71.1	71.1	71.1	85	66.4	0	0	---	0.00	29.993 
01:20	70.9	70.9	70.9	86	66.5	0	0	---	0.00	29.993 
01:25	70.9	70.9	70.9	86	66.5	0	0	---	0.00	29.993 
01:30	70.8	70.8	70.8	87	66.7	0	0	---	0.00	29.989 
01:35	70.8	70.8	70.8	87	66.7	0	0	---	0.00	29.989 
01:40	70.6	70.6	70.6	88	66.9	0	0	---	0.00	29.989 
01:45	70.6	70.6	70.6	88	66.9	0	0	---	0.00	29.990 
01:50	70.4	70.4	70.4	88	66.7	0	0	---	0.00	29.990 
01:55	70.4	70.4	70.4	88	66.7	0	0	---	0.00	29.990 
02:00	70.3	70.3	70.3	89	66.9	0	0	---	0.00	29.987 
02:05	70.1	70.1	70.1	89	66.7	0	0	---	0.00	29.987 
02:10	69.9	69.9	69.9	89	66.5	0	0	---	0.00	29.987 
02:15	69.9	69.9	69.9	89	66.5	0	0	---	0.00	29.988 
02:20	69.8	69.8	69.8	90	66.7	0	0	---	0.00	29.988 
02:25	69.8	69.8	69.8	90	66.7	0	0	---	0.00	29.988 
02:30	69.8	69.8	69.8	90	66.7	0	0	---	0.00	29.987 
02:35	69.6	69.6	69.6	91	66.8	0	0	---	0.00	29.987 
02:40	69.6	69.6	69.6	91	66.8	0	0	---	0.00	29.987 
02:45	69.6	69.6	69.6	91	66.8	0	0	---	0.00	29.987 
02:50	69.4	69.4	69.4	91	66.7	0	0	---	0.00	29.987 
02:55	69.4	69.4	69.4	91	66.7	0	0	---	0.00	29.987 
03:00	69.4	69.4	69.4	91	66.7	0	0	---	0.00	29.982 
03:05	69.4	69.4	69.4	92	67.0	0	0	---	0.00	29.982 
03:10	69.4	69.4	69.4	92	67.0	0	0	---	0.00	29.982 
03:15	69.4	69.4	69.4	92	67.0	0	0	---	0.00	29.984 
03:20	69.4	69.4	69.4	92	67.0	0	0	---	0.00	29.984 
03:25	69.4	69.4	69.4	92	67.0	0	0	---	0.00	29.984 
03:30	69.6	69.6	69.6	92	67.2	0	0	---	0.00	29.974 
03:35	69.8	69.8	69.8	92	67.4	0	0	---	0.00	29.974 
03:40	69.9	69.9	69.9	92	67.5	0	0	---	0.00	29.974 
03:45	69.9	69.9	69.9	92	67.5	0	0	---	0.00	29.973 
03:50	69.9	69.9	69.9	92	67.5	0	0	---	0.00	29.973 
03:55	70.1	70.1	70.1	92	67.7	0	0	---	0.00	29.973 
04:00	70.1	70.1	70.1	92	67.7	0	0	---	0.00	29.971 
04:05	70.1	70.1	70.1	92	67.7	0	0	---	0.00	29.971 
04:10	70.1	70.1	70.1	92	67.7	0	0	---	0.00	29.971 
04:15	70.3	70.3	70.3	92	67.9	0	0	---	0.00	29.969 
04:20	70.3	70.3	70.3	92	67.9	0	0	---	0.00	29.969 
04:25	70.4	70.4	70.4	92	68.0	0	0	---	0.00	29.969 
04:30	70.4	70.4	70.4	92	68.0	0	0	---	0.00	29.962 
04:35	70.4	70.4	70.4	92	68.0	0	0	---	0.00	29.962 
04:40	70.4	70.4	70.4	91	67.6	0	0	---	0.00	29.962 
04:45	70.4	70.4	70.4	91	67.6	0	0	---	0.00	29.957 
04:50	70.6	70.6	70.6	91	67.8	0	0	---	0.00	29.957 
04:55	70.6	70.6	70.6	91	67.8	0	0	---	0.00	29.957 
05:00	70.8	70.8	70.8	91	68.0	0	0	---	0.00	29.955 
05:05	70.9	70.9	70.9	91	68.1	0	0	---	0.00	29.955 
05:10	70.9	70.9	70.9	91	68.1	0	0	---	0.00	29.955 
05:15	70.9	70.9	70.9	90	67.8	0	0	---	0.00	29.954 
05:20	70.9	70.9	70.9	90	67.8	0	0	---	0.00	29.954 
05:25	70.9	70.9	70.9	90	67.8	0	0	---	0.00	29.954 
05:30	70.9	70.9	70.9	90	67.8	0	1	270	0.00	29.949 
05:35	70.9	70.9	70.9	90	67.8	0	0	---	0.00	29.949 
05:40	70.9	70.9	70.9	90	67.8	0	0	---	0.00	29.949 
05:45	70.9	70.9	70.9	91	68.1	0	0	---	0.00	29.943 
05:50	70.9	70.9	70.9	91	68.1	0	0	---	0.00	29.943 
05:55	70.9	70.9	70.9	91	68.1	0	0	---	0.00	29.943 
06:00	70.9	70.9	70.9	91	68.1	0	0	---	0.00	29.947 
06:05	70.9	70.9	70.9	91	68.1	0	0	---	0.00	29.947 
06:10	70.9	70.9	70.9	91	68.1	0	0	---	0.00	29.947 
06:15	70.9	70.9	70.9	91	68.1	0	0	---	0.00	29.947 
06:20	70.8	70.8	70.8	91	68.0	0	0	---	0.00	29.947 
06:25	70.9	70.9	70.9	91	68.1	0	0	---	0.00	29.947 
06:30	70.9	70.9	70.9	92	68.5	0	1	270	0.00	29.946 
06:35	71.1	71.1	71.1	92	68.7	0	0	---	0.00	29.946 
06:40	71.1	71.1	71.1	92	68.7	0	1	270	0.00	29.946 
06:45	71.3	71.3	71.3	92	68.8	0	1	270	0.00	29.958 
06:50	71.6	71.6	71.6	92	69.1	0	1	270	0.00	29.958 
06:55	71.8	71.8	71.8	92	69.3	0	1	270	0.00	29.958 
07:00	72.0	72.0	72.0	92	69.5	0	1	270	0.00	29.955 
07:05	72.1	72.1	72.1	92	69.6	0	1	270	0.00	29.955 
07:10	72.3	72.3	72.3	92	69.8	0	1	270	0.00	29.955 
07:15	72.5	72.5	72.5	92	70.0	0	1	270	0.00	29.955 
07:20	72.8	72.8	72.8	92	70.3	0	1	270	0.00	29.955 
07:25	73.2	73.2	73.2	92	70.7	0	2	270	0.00	29.955 
07:30	73.7	73.7	73.7	91	70.9	1	3	270	0.00	29.944 
07:35	74.0	74.0	74.0	90	70.9	1	3	270	0.00	29.944 
07:40	74.4	74.4	74.4	90	71.3	0	1	270	0.00	29.944 
07:45	74.7	74.7	74.7	89	71.2	0	1	270	0.00	29.950 
07:50	75.1	75.1	74.6	88	71.3	0	2	270	0.00	29.950 
07:55	75.3	75.3	75.0	88	71.5	0	2	270	0.00	29.950 
08:00	75.6	75.6	75.6	87	71.4	1	2	270	0.00	29.955 
08:05	75.8	75.8	76.1	86	71.3	1	2	270	0.00	29.955 
08:10	76.3	76.3	77.1	85	71.4	1	3	270	0.00	29.955 
08:15	76.7	76.7	77.8	85	71.8	1	3	270	0.00	29.962 
08:20	77.2	77.2	78.8	84	72.0	0	2	270	0.00	29.962 
08:25	77.7	77.7	79.8	83	72.1	1	2	270	0.00	29.962 
08:30	78.3	78.3	81.0	83	72.7	0	2	270	0.00	29.960 
08:35	78.6	78.6	81.5	82	72.6	1	3	270	0.00	29.960 
08:40	79.2	79.2	82.7	81	72.8	1	3	270	0.00	29.960 
08:45	79.4	79.4	82.9	79	72.3	2	6	270	0.00	29.957 
08:50	79.6	79.6	83.4	80	72.9	2	4	270	0.00	29.957 
08:55	79.6	79.6	83.4	80	72.9	1	4	270	0.00	29.957 
09:00	79.4	79.4	83.0	80	72.7	1	3	270	0.00	29.961 
09:05	79.2	79.2	82.7	81	72.8	1	3	270	0.00	29.961 
09:10	79.2	79.2	82.7	81	72.8	1	3	270	0.00	29.961 
09:15	79.0	79.0	82.3	81	72.7	2	3	270	0.00	29.966 
09:20	79.2	79.2	82.7	81	72.8	1	3	270	0.00	29.966 
09:25	79.8	79.8	83.9	81	73.4	1	3	270	0.00	29.966 
09:30	80.3	80.3	84.9	80	73.5	2	4	270	0.00	29.962 
09:35	80.7	80.7	85.6	79	73.6	2	4	270	0.00	29.962 
09:40	81.1	81.1	86.3	78	73.6	2	3	270	0.00	29.962 
09:45	81.4	81.4	86.9	78	73.9	1	3	270	0.00	29.956 
09:50	81.4	81.4	86.7	77	73.5	1	3	270	0.00	29.956 
09:55	81.4	81.4	86.7	77	73.5	1	4	270	0.00	29.956 
10:00	81.6	81.6	87.2	77	73.7	2	5	270	0.00	29.964 
10:05	82.2	82.2	88.5	77	74.2	2	5	270	0.00	29.964 
10:10	82.4	82.4	88.7	76	74.1	2	4	270	0.00	29.964 
10:15	82.4	82.4	88.4	75	73.7	2	3	270	0.00	29.967 
10:20	82.8	82.8	89.6	76	74.4	1	4	270	0.00	29.967 
10:25	83.0	83.0	89.8	75	74.2	2	5	270	0.00	29.967 
10:30	83.4	83.4	90.1	73	73.8	2	5	270	0.00	29.958 
10:35	83.4	83.4	90.1	73	73.8	2	5	270	0.00	29.958 
10:40	83.2	83.2	89.7	73	73.6	2	4	270	0.00	29.958 
10:45	83.6	83.6	90.5	73	74.0	2	4	315	0.00	29.958 
10:50	84.0	84.0	91.1	72	74.0	2	4	248	0.00	29.958 
10:55	84.0	84.0	91.1	72	74.0	2	5	270	0.00	29.958 
11:00	84.1	84.1	91.0	71	73.7	2	4	270	0.00	29.954 
11:05	84.5	84.5	91.6	70	73.6	1	3	292	0.00	29.954 
11:10	84.7	84.7	91.7	69	73.4	2	4	248	0.00	29.954 
11:15	84.5	84.5	91.2	69	73.2	2	4	248	0.00	29.953 
11:20	84.5	84.5	91.2	69	73.2	2	5	270	0.00	29.953 
11:25	84.5	84.5	91.2	69	73.2	2	5	270	0.00	29.953 
11:30	84.5	84.5	91.2	69	73.2	2	3	270	0.00	29.953 
11:35	84.7	84.7	91.3	68	72.9	2	4	270	0.00	29.953 
11:40	84.9	84.9	91.7	68	73.1	1	3	270	0.00	29.953 
11:45	85.1	85.1	91.8	67	72.9	2	5	270	0.00	29.954 
11:50	85.3	85.3	92.2	67	73.1	2	5	270	0.00	29.954 
11:55	85.7	85.7	93.1	67	73.4	1	4	248	0.00	29.954 
12:00	85.7	85.7	92.7	66	73.0	1	3	248	0.00	29.956 
12:05	85.9	85.9	93.2	66	73.2	2	4	270	0.00	29.956 
12:10	86.7	86.7	94.5	65	73.5	1	3	248	0.00	29.956 
12:15	87.2	87.2	94.3	62	72.6	1	3	248	0.00	29.954 
12:20	87.2	87.2	94.8	63	73.0	1	4	270	0.00	29.954 
12:25	87.0	87.0	94.8	64	73.3	2	4	270	0.00	29.954 
12:30	87.0	87.0	94.8	64	73.3	1	3	270	0.00	29.953 
12:35	87.0	87.0	94.3	63	72.8	1	3	248	0.00	29.953 
12:40	86.7	86.7	93.7	63	72.6	2	4	270	0.00	29.953 
12:45	86.7	86.7	94.5	65	73.5	1	4	270	0.00	29.952 
12:50	86.7	86.7	93.7	63	72.6	1	3	270	0.00	29.952 
12:55	86.5	86.5	93.7	64	72.8	2	4	292	0.00	29.952 
13:00	86.5	86.5	93.7	64	72.8	1	3	292	0.00	29.952 
13:05	87.0	87.0	94.8	64	73.3	2	4	292	0.00	29.952 
13:10	86.7	86.7	93.7	63	72.6	2	4	292	0.00	29.952 
13:15	87.0	87.0	94.8	64	73.3	2	4	292	0.00	29.951 
13:20	87.6	87.6	96.6	65	74.3	1	3	292	0.00	29.951 
13:25	88.4	88.4	97.5	63	74.2	1	4	338	0.00	29.951 
13:30	88.6	88.6	97.0	61	73.4	2	5	270	0.00	29.940 
13:35	88.6	88.6	97.0	61	73.4	2	4	270	0.00	29.940 
13:40	88.0	88.0	96.6	63	73.8	2	4	270	0.00	29.940 
13:45	87.8	87.8	95.6	62	73.1	1	3	270	0.00	29.937 
13:50	87.6	87.6	96.1	64	73.9	1	3	270	0.00	29.937 
13:55	87.6	87.6	95.7	63	73.4	2	4	270	0.00	29.937 
14:00	87.8	87.8	96.1	63	73.6	1	3	292	0.00	29.926 
14:05	88.0	88.0	97.1	64	74.3	1	4	292	0.00	29.926 
14:10	88.4	88.4	97.0	62	73.7	1	3	270	0.00	29.926 
14:15	88.8	88.8	98.5	63	74.5	2	6	270	0.00	29.921 
14:20	89.3	89.3	98.6	61	74.0	1	4	270	0.00	29.921 
14:25	89.7	89.7	99.0	60	73.9	1	4	270	0.00	29.921 
14:30	89.7	89.7	98.4	59	73.4	2	4	270	0.00	29.910 
14:35	89.5	89.5	98.5	60	73.7	1	3	292	0.00	29.910 
14:40	89.7	89.7	97.9	58	72.9	2	5	270	0.00	29.910 
14:45	90.5	90.5	100.3	59	74.2	1	4	248	0.00	29.903 
14:50	91.0	91.0	98.6	54	72.0	2	5	248	0.00	29.903 
14:55	91.2	91.2	99.0	54	72.2	1	5	270	0.00	29.903 
15:00	91.6	91.6	99.9	54	72.6	2	7	270	0.00	29.902 
15:05	91.6	91.6	99.4	53	72.0	2	6	248	0.00	29.902 
15:10	91.2	91.2	99.0	54	72.2	2	5	270	0.00	29.902 
15:15	90.1	90.1	97.7	56	72.2	3	7	270	0.00	29.905 
15:20	90.1	90.1	97.7	56	72.2	3	6	270	0.00	29.905 
15:25	90.3	90.3	97.1	54	71.4	2	5	270	0.00	29.905 
15:30	90.3	90.3	97.6	55	71.9	1	2	270	0.00	29.899 
15:35	90.7	90.7	98.0	54	71.7	2	5	270	0.00	29.899 
15:40	91.2	91.2	98.5	53	71.6	3	7	270	0.00	29.899 
15:45	90.7	90.7	96.9	52	70.6	3	6	270	0.00	29.899 
15:50	91.2	91.2	98.5	53	71.6	2	5	270	0.00	29.899 
15:55	91.4	91.4	98.9	53	71.8	2	6	270	0.00	29.899 
16:00	91.6	91.6	98.8	52	71.4	2	5	270	0.00	29.890 
16:05	91.8	91.8	99.2	52	71.6	2	4	270	0.00	29.890 
16:10	92.3	92.3	100.9	53	72.6	1	4	270	0.00	29.890 
16:15	92.3	92.3	100.3	52	72.1	1	4	270	0.00	29.884 
16:20	92.5	92.5	100.2	51	71.7	1	4	270	0.00	29.884 
16:25	92.1	92.1	99.3	51	71.3	2	5	270	0.00	29.884 
16:30	91.8	91.8	99.2	52	71.6	2	4	270	0.00	29.893 
16:35	91.2	91.2	98.5	53	71.6	2	5	270	0.00	29.893 
16:40	91.0	91.0	97.5	52	70.9	2	4	270	0.00	29.893 
16:45	90.7	90.7	96.4	51	70.0	2	5	270	0.00	29.887 
16:50	91.0	91.0	97.5	52	70.9	1	3	270	0.00	29.887 
16:55	91.2	91.2	98.0	52	71.1	1	4	270	0.00	29.887 
17:00	91.4	91.4	98.9	53	71.8	1	2	270	0.00	29.874 
17:05	91.4	91.4	98.4	52	71.3	2	6	270	0.00	29.874 
17:10	91.0	91.0	98.6	54	72.0	0	3	270	0.00	29.874 
17:15	90.5	90.5	98.1	55	72.1	1	3	270	0.00	29.869 
17:20	89.9	89.9	97.3	56	72.1	1	3	270	0.00	29.869 
17:25	88.6	88.6	95.0	57	71.4	2	12	270	0.00	29.869 
17:30	84.1	84.1	90.0	68	72.4	1	5	292	0.03	29.911 
17:35	79.8	79.8	83.2	75	71.1	1	4	315	0.15	29.911 
17:40	77.0	77.0	78.5	83	71.4	1	3	315	0.30	29.911 
17:45	75.8	75.8	76.0	87	71.6	0	3	315	0.03	29.933 
17:50	75.1	75.1	74.3	90	72.0	0	2	315	0.00	29.933 
17:55	74.9	74.9	74.9	91	72.1	0	1	315	0.00	29.933 
18:00	74.7	74.7	74.7	92	72.2	0	1	315	0.00	29.956 
18:05	74.6	74.6	74.6	92	72.1	0	1	315	0.00	29.956 
18:10	74.4	74.4	74.4	93	72.2	0	2	315	0.00	29.956 
18:15	74.6	74.6	74.6	93	72.4	1	3	315	0.00	29.974 
18:20	74.2	74.2	74.2	93	72.0	0	2	248	0.00	29.974 
18:25	74.0	74.0	74.0	93	71.8	0	1	248	0.00	29.974 
18:30	74.0	74.0	74.0	94	72.2	0	1	248	0.00	29.953 
18:35	73.9	73.9	73.9	94	72.1	0	1	248	0.00	29.953 
18:40	73.7	73.7	73.7	94	71.9	0	1	248	0.00	29.953 
18:45	73.7	73.7	73.7	94	71.9	0	1	248	0.00	29.947 
18:50	73.7	73.7	73.7	94	71.9	0	1	248	0.00	29.947 
18:55	73.5	73.5	73.5	94	71.7	0	2	248	0.00	29.947 
19:00	73.2	73.2	73.2	94	71.4	0	1	248	0.00	29.952 
19:05	73.0	73.0	73.0	94	71.2	0	1	248	0.00	29.952 
19:10	73.0	73.0	73.0	94	71.2	0	1	248	0.00	29.952 
19:15	72.8	72.8	72.8	94	71.0	0	1	248	0.00	29.938 
19:20	72.8	72.8	72.8	94	71.0	0	0	---	0.00	29.938 
19:25	72.7	72.7	72.7	94	70.9	0	1	248	0.00	29.938 
19:30	72.7	72.7	72.7	94	70.9	0	0	---	0.00	29.947 
19:35	72.5	72.5	72.5	94	70.7	0	0	---	0.00	29.947 
19:40	72.5	72.5	72.5	94	70.7	0	0	---	0.00	29.947 
19:45	72.5	72.5	72.5	95	71.0	0	0	---	0.00	29.963 
19:50	72.5	72.5	72.5	95	71.0	0	0	---	0.00	29.963 
19:55	72.5	72.5	72.5	95	71.0	0	1	248	0.00	29.963 
20:00	72.5	72.5	72.5	95	71.0	0	0	---	0.00	29.960 
20:05	72.5	72.5	72.5	95	71.0	0	1	248	0.00	29.960 
20:10	72.5	72.5	72.5	95	71.0	0	1	248	0.00	29.960 
20:15	72.5	72.5	72.5	95	71.0	0	1	248	0.00	29.958 
20:20	72.7	72.7	72.7	95	71.2	0	0	---	0.01	29.958 
20:25	72.5	72.5	72.5	95	71.0	0	0	---	0.00	29.958 
20:30	72.5	72.5	72.5	95	71.0	0	2	248	0.00	29.956 
20:35	72.3	72.3	72.3	95	70.8	0	2	248	0.01	29.956 
20:40	72.1	72.1	72.1	95	70.6	0	1	248	0.01	29.956 
20:45	72.1	72.1	72.1	95	70.6	0	1	248	0.00	29.961 
20:50	72.0	72.0	72.0	95	70.5	0	1	248	0.00	29.961 
20:55	72.1	72.1	72.1	95	70.6	0	1	248	0.00	29.961 
21:00	72.1	72.1	72.1	95	70.6	0	0	---	0.00	29.962 
21:05	72.1	72.1	72.1	95	70.6	0	0	---	0.00	29.962 
21:10	72.1	72.1	72.1	95	70.6	0	0	---	0.00	29.962 
21:15	72.1	72.1	72.1	95	70.6	0	1	248	0.00	29.946 
21:20	72.1	72.1	72.1	95	70.6	0	0	---	0.00	29.946 
21:25	72.1	72.1	72.1	95	70.6	0	0	---	0.00	29.946 
21:30	72.1	72.1	72.1	95	70.6	0	0	---	0.00	29.958 
21:35	72.1	72.1	72.1	95	70.6	0	1	248	0.00	29.958 
21:40	72.1	72.1	72.1	95	70.6	0	1	248	0.00	29.958 
21:45	72.0	72.0	72.0	95	70.5	0	1	248	0.00	29.946 
21:50	72.0	72.0	72.0	95	70.5	0	1	248	0.00	29.946 
21:55	72.0	72.0	72.0	95	70.5	0	1	248	0.00	29.946 
22:00	72.0	72.0	72.0	95	70.5	0	1	248	0.00	29.943 
22:05	71.8	71.8	71.8	95	70.3	0	0	---	0.00	29.943 
22:10	71.8	71.8	71.8	95	70.3	0	1	248	0.00	29.943 
22:15	71.6	71.6	71.6	95	70.1	0	0	---	0.00	29.935 
22:20	71.6	71.6	71.6	95	70.1	0	0	---	0.00	29.935 
22:25	71.5	71.5	71.5	95	70.0	0	1	248	0.00	29.935 
22:30	71.5	71.5	71.5	95	70.0	0	0	---	0.00	29.944 
22:35	71.5	71.5	71.5	96	70.3	0	0	---	0.00	29.944 
22:40	71.5	71.5	71.5	96	70.3	0	0	---	0.00	29.944 
22:45	71.5	71.5	71.5	96	70.3	0	0	---	0.00	29.942 
22:50	71.5	71.5	71.5	96	70.3	0	1	248	0.00	29.942 
22:55	71.5	71.5	71.5	96	70.3	0	0	---	0.00	29.942 
23:00	71.5	71.5	71.5	96	70.3	0	0	---	0.00	29.955 
23:05	71.5	71.5	71.5	96	70.3	0	1	248	0.00	29.955 
23:10	71.5	71.5	71.5	96	70.3	0	1	248	0.00	29.955 
23:15	71.5	71.5	71.5	96	70.3	0	2	248	0.00	29.959 
23:20	71.5	71.5	71.5	96	70.3	0	1	248	0.00	29.959 
23:25	71.5	71.5	71.5	96	70.3	0	1	248	0.00	29.959 
23:30	71.5	71.5	71.5	96	70.3	0	1	248	0.00	29.964 
23:35	71.5	71.5	71.5	96	70.3	0	1	248	0.00	29.964 
23:40	71.5	71.5	71.5	96	70.3	0	1	248	0.00	29.964 
23:45	71.5	71.5	71.5	96	70.3	0	1	248	0.00	29.957 
23:50	71.3	71.3	71.3	96	70.1	0	1	248	0.00	29.957 
23:55	71.3	71.3	71.3	96	70.1	0	0	---	0.00	29.957 

CoCoRaHS
IN-AL-39
A2 Web Hosting
Creative Commons License
GoDaddy
search engine by freefind advanced

loaded 2018-11-17 14:26:59 • last modified 2010-11-18 10:43:29
Privacy PolicyDisclaimer
• wx.awcolley.com is powered by PmWiki v.2002016 •
• all content (unless otherwise noted) © 2018 A W Colley